Quantico, VA

7:11 PM EDT on March 27, 2015 (GMT -0400)
Thomason Park | | Change Station
CLOSE
Current Station
Personal Weather Station
Location: Quantico, VA
Elevation: 138 ft
Nearby Weather Stations

Elev 138 ft 38.54 °N, 77.33 °W | Updated 8 minutes ago

Scattered Clouds
Scattered Clouds
47.8 °F
Feels Like 48 °F
N
0.0
Wind Variable Wind from NNW

Today
High -- | Low -- °F
--% Chance of Precip.
Yesterday
High -- | Low -- °F
Precip. -- in
7:02 AM 7:27 PM
First Quarter, 56% visible
Pressure 29.80 in
Visibility 10.0 miles
Clouds Scattered Clouds 11000 ft
Windchill 48 °F
Dew Point 33 °F
Humidity 57%
Rainfall 0.74 in
Snow Depth Not available.
UV 0 out of 12
Pollen 4.00 out of 12
Air Quality Not available.
Flu Activity Not available.
METAR KNYG 272256Z AUTO 36007KT 10SM SCT110 09/M03 A2980 RMK AO2 SLP090 T00941028

More Conditions Fewer Conditions

Pressure 29.80 in
Visibility 10.0 miles
Clouds Scattered Clouds 11000 ft
Windchill 48 °F
Dew Point 33 °F
Humidity 57%
Rainfall 0.74 in
Snow Depth Not available.
UV 0 out of 12
Pollen 4.00 out of 12
Air Quality Not available.
Flu Activity Not available.
METAR KNYG 272256Z AUTO 36007KT 10SM SCT110 09/M03 A2980 RMK AO2 SLP090 T00941028

More Conditions Fewer Conditions

10-Day Weather Forecast

Almanac

Astronomy

Mar. 27, 2015 Rise Set
Actual Time
Civil Twilight
Nautical Twilight
Astronomical Twilight
Moon
Length of Visible Light
Length of Day
Tomorrow will be .
, % of the Moon is Illuminated

Today's Extremes

State Highs State Lows

Community

WunderPhotos

Upload Photos

1,808,873 photos uploaded!

WunderBlogs® & News

Nearby

Air Quality

  Air Quality AQ Index Pollutant
Not available.

Snow Depth

Station Depth Elevation

Earthquake Activity

City Distance Mag. Time & Date
Minimum magnitude displayed is 2.5.

Coastal Water Temperatures

Place Temperature

Stations

Nearby Weather Stations

Station Location Temp. Windchill Dew Point Humidity Wind Precip. Elev Updated Type